This is the latest recevied weather packets stored in our database for station/object SP8NFE-1. If no packets are shown the sender has not sent any weather packets the latest 10 day(s).
| Time | Temp. | Humidity | Pressure | Rain* | Wind** | Luminosity | Snow |
|---|---|---|---|---|---|---|---|
| 1777185648 | 6.11° C | 67% | 0 hPa | 0 mm | - | - | - |
| 1777185348 | 6.11° C | 71% | 0 hPa | 0 mm | - | - | - |
| 1777185048 | 5.56° C | 74% | 0 hPa | 0 mm | - | - | - |
| 1777184748 | 5.56° C | 81% | 0 hPa | 0 mm | - | - | - |
| 1777184448 | 5.56° C | 82% | 0 hPa | 0 mm | - | - | - |
| 1777184148 | 5.56° C | 84% | 0 hPa | 0 mm | - | - | - |
| 1777183848 | 6.11° C | 84% | 0 hPa | 0 mm | - | - | - |
| 1777183548 | 5.56° C | 87% | 0 hPa | 0 mm | - | - | - |
| 1777183248 | 5.56° C | 86% | 0 hPa | 0 mm | - | - | - |
| 1777182948 | 5.56° C | 89% | 0 hPa | 0 mm | - | - | - |
| 1777182648 | 5.56° C | 90% | 0 hPa | 0 mm | - | - | - |
| 1777182348 | 5° C | 94% | 0 hPa | 0 mm | - | - | - |
| 1777182048 | 5° C | 96% | 0 hPa | 0 mm | - | - | - |
| 1777181748 | 4.44° C | 96% | 0 hPa | 0 mm | - | - | - |
| 1777181448 | 4.44° C | 96% | 0 hPa | 0 mm | - | - | - |
| 1777181148 | 4.44° C | 96% | 0 hPa | 0 mm | - | - | - |
| 1777180848 | 5.56° C | 90% | 0 hPa | 0 mm | - | - | - |
| 1777180548 | 6.67° C | 71% | 0 hPa | 0 mm | - | - | - |
| 1777180248 | 7.22° C | 60% | 0 hPa | 0 mm | - | - | - |
| 1777179948 | 7.22° C | 60% | 0 hPa | 0 mm | - | - | - |
| 1777179648 | 7.22° C | 61% | 0 hPa | 0 mm | - | - | - |
| 1777179348 | 7.78° C | 59% | 0 hPa | 0 mm | - | - | - |
| 1777179048 | 7.78° C | 58% | 0 hPa | 0 mm | - | - | - |
| 1777178748 | 7.78° C | 57% | 0 hPa | 0 mm | - | - | - |
| 1777178448 | 7.78° C | 56% | 0 hPa | 0 mm | - | - | - |
* Rain latest hour (hover to see other rain measurements)
** Current wind speed in m/s (hover to see current wind gust speed)